Bookmark and Share
Track history (hours):
 

Mt Bomar Mars

Last reported at 2014-Apr-19 01:34 UTC. Time now 2014-Apr-19 02:11 UTC.
Position N 53°32' W 003°09'.

Length 107 m; draft 5.4 m.

Type: Ship. MMSI: 256784000.

NotesDate/timePositionNaut miles runAvg speedWind from/ knotsBaromVisibWave heightAir tempDewpointWater temp
2014-Apr-19 01:34N 53°32' W 003°09'6 0.3
2014-Apr-18 00:20N 53°27' W 003°02'200 5.1
2014-Apr-16 09:08N 50°18' W 001°17'5 9.1
2014-Apr-16 08:32N 50°19' W 001°09'9 9.5
2014-Apr-16 07:33N 50°27' W 001°02'1111.3
2014-Apr-16 06:33N 50°38' W 000°59'10 9.5
2014-Apr-16 05:33N 50°46' W 001°09'9 8.7
2014-Apr-16 04:33N 50°51' W 001°20'0 0.0
2014-Apr-16 03:33N 50°51' W 001°20'0 0.0
2014-Apr-16 02:33N 50°51' W 001°20'0 0.0
2014-Apr-16 01:33N 50°51' W 001°20'0 0.0
2014-Apr-16 00:33N 50°51' W 001°20'0 0.0
2014-Apr-15 23:33N 50°51' W 001°20'0 0.0
2014-Apr-15 22:32N 50°51' W 001°20'0 0.0
2014-Apr-15 21:33N 50°51' W 001°20'0 0.0
2014-Apr-15 20:32N 50°51' W 001°20'0 0.0
2014-Apr-15 19:32N 50°51' W 001°20'0 0.0
2014-Apr-15 18:32N 50°51' W 001°20'0 0.0
2014-Apr-15 17:32N 50°51' W 001°20'0 0.0
2014-Apr-15 16:32N 50°51' W 001°20'0 0.0
2014-Apr-15 15:32N 50°51' W 001°20'0 0.0
2014-Apr-15 14:32N 50°51' W 001°20'0 0.0
2014-Apr-15 12:33N 50°51' W 001°20'0 0.0
2014-Apr-15 11:33N 50°51' W 001°20'0 0.0
2014-Apr-15 10:32N 50°51' W 001°20'0 0.0
2014-Apr-15 09:32N 50°51' W 001°20'5 5.4
2014-Apr-15 08:34N 50°47' W 001°14'1010.1
2014-Apr-15 07:34N 50°43' W 000°59'5 5.3
2014-Apr-15 06:33N 50°38' W 001°02'0 0.0
2014-Apr-15 05:33N 50°38' W 001°02'0 0.1
2014-Apr-15 03:33N 50°38' W 001°02'0 0.0
2014-Apr-15 02:33N 50°38' W 001°02'0 0.0
2014-Apr-15 01:33N 50°38' W 001°02'0 0.0
2014-Apr-15 00:33N 50°38' W 001°02'0 0.0
2014-Apr-14 23:33N 50°38' W 001°02'0 0.0
2014-Apr-14 22:33N 50°38' W 001°02'0 0.0
2014-Apr-14 21:33N 50°38' W 001°02'0 0.2
2014-Apr-14 20:33N 50°38' W 001°02'0 0.0
2014-Apr-14 19:33N 50°38' W 001°02'0 0.0
2014-Apr-14 18:33N 50°38' W 001°02'0 0.0
2014-Apr-14 17:33N 50°38' W 001°02'0 0.0
2014-Apr-14 16:33N 50°38' W 001°02'0 0.0
2014-Apr-14 15:33N 50°38' W 001°02'0 0.2
2014-Apr-14 14:33N 50°38' W 001°02'0 0.0
2014-Apr-14 13:33N 50°38' W 001°02'0 0.1
2014-Apr-14 11:33N 50°38' W 001°02'0 0.0
2014-Apr-14 10:33N 50°38' W 001°02'0 0.1
2014-Apr-14 09:33N 50°38' W 001°02'0 0.1
2014-Apr-14 08:33N 50°38' W 001°02'0 0.0
2014-Apr-14 07:33N 50°38' W 001°02'0 0.0
2014-Apr-14 06:33N 50°38' W 001°02'0 0.0
2014-Apr-14 05:33N 50°38' W 001°02'0 0.0
2014-Apr-13 22:33N 50°38' W 001°02'0 0.1
2014-Apr-13 21:33N 50°38' W 001°02'0 0.1
2014-Apr-13 20:33N 50°38' W 001°02'0 0.0
2014-Apr-13 19:33N 50°38' W 001°02'0 0.0
2014-Apr-13 18:33N 50°38' W 001°02'0 0.0
2014-Apr-13 17:33N 50°38' W 001°02'0 0.0
2014-Apr-13 16:33N 50°38' W 001°02'0 0.1
2014-Apr-13 15:33N 50°38' W 001°02'0 0.1
2014-Apr-13 14:33N 50°38' W 001°02'0 0.0
2014-Apr-13 13:33N 50°38' W 001°02'0 0.1
2014-Apr-13 12:33N 50°38' W 001°02'0 0.1
2014-Apr-13 11:33N 50°38' W 001°02'0 0.0
2014-Apr-13 10:33N 50°38' W 001°02'0 0.1
2014-Apr-13 09:33N 50°38' W 001°02'0 0.0
2014-Apr-13 08:33N 50°38' W 001°02'0 0.0
2014-Apr-13 07:33N 50°38' W 001°02'0 0.0
2014-Apr-13 06:33N 50°38' W 001°02'0 0.0
2014-Apr-13 05:33N 50°38' W 001°02'0 0.0
2014-Apr-13 04:33N 50°38' W 001°02'0 0.0
2014-Apr-13 03:33N 50°38' W 001°02'0 0.2
2014-Apr-13 02:33N 50°38' W 001°02'0 0.0
2014-Apr-13 01:33N 50°38' W 001°02'0 0.0
2014-Apr-13 00:33N 50°38' W 001°02'0 0.0
2014-Apr-12 23:33N 50°38' W 001°02'0 0.1
2014-Apr-12 22:33N 50°38' W 001°02'0 0.2
2014-Apr-12 21:33N 50°38' W 001°02'0 0.0
2014-Apr-12 20:33N 50°38' W 001°02'0 0.0
2014-Apr-12 19:33N 50°38' W 001°02'0 0.0
2014-Apr-12 18:33N 50°38' W 001°02'0 0.0
2014-Apr-12 17:33N 50°38' W 001°02'0 0.0
2014-Apr-12 16:33N 50°38' W 001°02'0 0.0
2014-Apr-12 15:33N 50°38' W 001°02'0 0.1
2014-Apr-12 14:33N 50°38' W 001°02'0 0.1
2014-Apr-12 13:33N 50°38' W 001°02'4 4.2
2014-Apr-12 12:33N 50°37' W 000°56'1413.7
2014-Apr-12 11:33N 50°35' W 000°34'1612.8
2014-Apr-12 10:19N 50°33' W 000°09'911.8
2014-Apr-12 09:30N 50°33' E 000°06'1111.5
2014-Apr-12 08:33N 50°36' E 000°22'1110.8
2014-Apr-12 07:33N 50°40' E 000°38'1111.3
2014-Apr-12 06:33N 50°46' E 000°53'1212.2
2014-Apr-12 05:33N 50°54' E 001°08'1413.8
2014-Apr-12 04:34N 51°03' E 001°25'1413.9
2014-Apr-12 03:33N 51°12' E 001°42'1212.3
2014-Apr-12 02:33N 51°23' E 001°51'1111.4
2014-Apr-12 01:34N 51°32' E 002°01'1111.0
2014-Apr-12 00:33N 51°40' E 002°14'1110.7
2014-Apr-11 23:33N 51°48' E 002°26'2511.0
2014-Apr-11 21:17N 52°02' E 002°59'912.5
2014-Apr-11 20:33N 52°03' E 003°13'1312.8
2014-Apr-11 19:31N 52°04' E 003°35'1212.1
2014-Apr-11 18:33N 52°02' E 003°54'1312.5
2014-Apr-11 17:33N 51°56' E 004°12'5 0.3
2014-Apr-11 00:32N 51°53' E 004°18'0 0.0
2014-Apr-10 15:16N 51°53' E 004°18'5 6.8
2014-Apr-10 14:33N 51°56' E 004°12'1110.9
2014-Apr-10 13:33N 51°60' E 003°56'7 7.0
2014-Apr-10 12:33N 51°57' E 003°46'1 0.2
2014-Apr-10 08:30N 51°56' E 003°46'0 0.1
2014-Apr-10 07:30N 51°56' E 003°45'0 0.0
2014-Apr-10 06:21N 51°56' E 003°45'0 0.0
2014-Apr-10 05:09N 51°56' E 003°45'0 0.0
2014-Apr-10 04:30N 51°56' E 003°45'1 0.5
2014-Apr-10 02:33N 51°57' E 003°45'1110.5
2014-Apr-10 01:33N 51°55' E 003°28'1212.5
2014-Apr-10 00:33N 51°52' E 003°09'10 9.9
2014-Apr-09 23:33N 51°49' E 002°54'1111.3
2014-Apr-09 22:33N 51°45' E 002°37'1313.4
2014-Apr-09 21:33N 51°35' E 002°23'1413.5
2014-Apr-09 20:32N 51°24' E 002°09'1212.7
2014-Apr-09 19:34N 51°13' E 002°02'1313.0
2014-Apr-09 18:33N 51°06' E 001°44'1313.1
2014-Apr-09 17:32N 50°56' E 001°30'1312.0
2014-Apr-09 16:26N 50°44' E 001°23'2312.1
2014-Apr-09 14:34N 50°28' E 000°56'1212.3
2014-Apr-09 13:34N 50°25' E 000°38'5310.2
2014-Apr-09 08:19N 49°41' W 000°10'912.0
2014-Apr-09 07:34N 49°32' W 000°11'1110.6
2014-Apr-09 06:34N 49°27' E 000°03'1111.2
2014-Apr-09 05:34N 49°26' E 000°20'  

Dump ship's entire track history

sailing weather and tide predictions

Mt Bomar Mars — 9HCM9 — position and weather